Terminal Aerodrome Forecast
Issued by NWS

Home | Current Version | Previous Version | Text Only | Print | Product List | Glossary On
Versions: 1 2 3 4 5 6 7 8 9 10 11 12 13 14
000
FTUS42 TJSJ 011100
TAFKPK
TAF
TKPK 011137Z 0112/0212 06011KT P6SM SCT022
      TEMPO 0112/0113 -SHRA SCT015
     FM011300 06015KT P6SM SCT022
     FM012300 06011KT P6SM FEW022
      AMD NOT SKED 0202/0211=

USA.gov is the U.S. government's official web portal to all federal, state and local government web resources and services.